DW4362 Weather Reports


Display with metric or nautical units.
time (UTC)temp
F
wind
direction
speed
MPH
gust
MPH
rain 1hr
in
rain 24hr
in
rain mn
in
humidity
%
barometer
mb
20240622190131 96 251 0.0 6.0 0.00 0.00 0.00 47 1016.9
20240622184631 97 138 2.0 6.0 0.00 0.00 0.00 47 1017.1
20240622183101 96 105 2.0 6.0 0.00 0.00 0.00 44 1017.4
20240622181631 94 359 2.0 6.0 0.00 0.00 0.00 45 1017.6
20240622180131 96 209 2.0 8.0 0.00 0.00 0.00 45 1017.8
20240622174631 97 226 0.0 3.0 0.00 0.00 0.00 44 1018.1
20240622173131 95 236 0.0 6.0 0.00 0.00 0.00 44 1018.3
20240622171631 95 166 2.0 11.0 0.00 0.00 0.00 44 1018.4
20240622170131 95 167 2.0 6.0 0.00 0.00 0.00 45 1018.6
20240622164631 95 200 0.0 5.0 0.00 0.00 0.00 47 1018.7
20240622163101 94 317 0.0 6.0 0.00 0.00 0.00 47 1018.9
20240622161631 93 117 2.0 6.0 0.00 0.00 0.00 49 1019.1
20240622160131 93 136 0.0 9.0 0.00 0.00 0.00 45 1019.2
20240622154631 92 77 0.0 3.0 0.00 0.00 0.00 47 1019.2
20240622151631 91 131 0.0 5.0 0.00 0.00 0.00 51 1019.2
20240622150131 89 44 0.0 3.0 0.00 0.00 0.00 53 1019.4
20240622144630 90 224 0.0 0.0 0.00 0.00 0.00 59 1019.4
20240622143131 87 343 0.0 5.0 0.00 0.00 0.00 60 1019.5
20240622141630 88 37 0.0 2.0 0.00 0.00 0.00 62 1019.5
20240622140130 85 349 0.0 0.0 0.00 0.00 0.00 69 1019.6
20240622134630 83 7 0.0 3.0 0.00 0.00 0.00 75 1019.6
20240622133100 81 84 0.0 2.0 0.00 0.00 0.00 76 1019.6
20240622131630 79 298 0.0 3.0 0.00 0.00 0.00 80 1019.4
20240622130130 77 349 0.0 5.0 0.00 0.00 0.00 84 1019.4
20240622123130 73 342 0.0 2.0 0.00 0.00 0.00 95 1019.3
20240622121600 71 333 0.0 5.0 0.00 0.00 0.00 98 1019.3
20240622120130 70 159 0.0 0.0 0.00 0.00 0.00 98 1019.2
20240622114630 69 160 0.0 0.0 0.00 0.00 0.00 98 1019.1
20240622113100 69 160 0.0 0.0 0.00 0.00 0.00 98 1019.0
20240622111630 68 160 0.0 0.0 0.00 0.01 0.00 98 1018.8
20240622110130 68 160 0.0 0.0 0.00 0.01 0.00 98 1018.7
20240622104630 68 159 0.0 0.0 0.00 0.01 0.00 98 1018.6
20240622103100 68 160 0.0 0.0 0.00 0.01 0.00 98 1018.6
20240622101630 68 160 0.0 0.0 0.00 0.01 0.00 98 1018.5
20240622100130 68 160 0.0 0.0 0.00 0.01 0.00 98 1018.5
20240622094630 68 160 0.0 0.0 0.00 0.01 0.00 98 1018.6
20240622093130 68 160 0.0 0.0 0.00 0.01 0.00 98 1018.6
20240622091600 69 160 0.0 0.0 0.00 0.01 0.00 97 1018.5
20240622090130 69 160 0.0 0.0 0.00 0.01 0.00 97 1018.4
20240622084630 69 160 0.0 0.0 0.00 0.01 0.00 97 1018.3
20240622083130 69 160 0.0 0.0 0.00 0.01 0.00 97 1018.2
20240622081630 69 160 0.0 0.0 0.00 0.01 0.00 97 1018.1
20240622080130 70 160 0.0 0.0 0.00 0.01 0.00 97 1018.2
20240622074630 70 160 0.0 0.0 0.00 0.01 0.00 97 1018.2
20240622073100 70 160 0.0 0.0 0.00 0.01 0.00 97 1018.4
20240622071630 70 160 0.0 0.0 0.00 0.01 0.00 96 1018.6
20240622070130 70 160 0.0 0.0 0.00 0.01 0.00 96 1018.7
20240622064630 71 160 0.0 0.0 0.00 0.01 0.00 96 1018.8
20240622063130 71 160 0.0 0.0 0.00 0.01 0.00 96 1019.0
20240622061630 71 159 0.0 0.0 0.00 0.01 0.00 96 1019.3
20240622054630 72 160 0.0 0.0 0.00 0.01 0.00 95 1019.5
20240622053129 72 160 0.0 0.0 0.00 0.01 0.00 94 1019.6
20240622051630 72 160 0.0 0.0 0.00 0.01 0.00 94 1019.7
20240622050130 73 160 0.0 0.0 0.00 0.01 0.00 93 1019.8
20240622044630 73 160 0.0 0.0 0.00 0.01 0.01 93 1019.9
20240622043130 73 159 0.0 0.0 0.00 0.01 0.01 93 1019.9
20240622041630 73 159 0.0 0.0 0.00 0.01 0.01 92 1020.0
20240622040129 73 159 0.0 0.0 0.00 0.01 0.01 92 1019.9
20240622034630 74 159 0.0 0.0 0.00 0.01 0.01 91 1019.7
20240622033130 74 159 0.0 0.0 0.00 0.01 0.01 91 1019.6
20240622031630 74 159 0.0 0.0 0.00 0.01 0.01 89 1019.4
20240622024629 75 159 0.0 0.0 0.00 0.01 0.01 88 1018.9
20240622023129 75 159 0.0 0.0 0.00 0.01 0.01 86 1018.7
20240622014629 78 159 0.0 0.0 0.00 0.02 0.01 79 1018.4
20240622010129 81 117 0.0 2.0 0.00 0.08 0.01 71 1018.3
20240622004629 82 285 0.0 2.0 0.00 0.14 0.01 69 1018.1
20240622003129 83 285 0.0 0.0 0.00 0.14 0.01 65 1018.1
20240622000129 85 26 0.0 8.0 0.00 0.14 0.01 60 1018.2
20240621234629 86 338 0.0 2.0 0.00 0.14 0.01 59 1018.0
20240621231629 88 285 0.0 2.0 0.00 0.14 0.01 54 1018.2
20240621230129 89 300 2.0 5.0 0.00 0.14 0.01 51 1018.3
20240621224629 89 158 0.0 3.0 0.00 0.14 0.01 50 1018.1
20240621223129 89 339 0.0 5.0 0.00 0.25 0.01 52 1018.1
20240621221629 91 322 0.0 3.0 0.00 0.42 0.01 47 1018.4
20240621220129 91 307 0.0 5.0 0.00 0.42 0.01 50 1018.5
20240621213129 91 198 0.0 3.0 0.00 0.51 0.01 49 1018.8
20240621211629 93 112 0.0 3.0 0.00 0.51 0.01 46 1018.9
20240621210129 92 255 0.0 3.0 0.00 0.51 0.01 45 1019.0
20240621204629 93 312 0.0 6.0 0.00 0.52 0.01 45 1019.0
20240621203129 93 359 0.0 8.0 0.00 0.53 0.01 44 1019.3
20240621201629 93 167 0.0 8.0 0.00 0.53 0.01 45 1019.4
20240621200129 92 347 2.0 11.0 0.00 0.53 0.01 47 1019.7
20240621194629 91 296 0.0 6.0 0.00 0.53 0.01 45 1019.8
20240621193129 92 85 2.0 8.0 0.00 0.53 0.01 48 1019.9
20240621191629 90 165 0.0 8.0 0.00 0.53 0.01 49 1020.0